createdAt,value
2023-01-01T00:00:23.324Z,2.28
2023-01-01T00:02:49.986Z,2.16
2023-01-01T00:05:16.547Z,2.29
2023-01-01T00:07:43.000Z,2.20
2023-01-01T00:10:28.602Z,2.19
2023-01-01T00:12:55.428Z,2.21
2023-01-01T00:15:22.063Z,2.16
2023-01-01T00:17:48.568Z,2.08
2023-01-01T00:20:15.133Z,2.17
2023-01-01T00:22:54.382Z,2.23
2023-01-01T00:25:21.753Z,2.27
2023-01-01T00:27:48.267Z,2.24
2023-01-01T00:30:14.775Z,2.33
2023-01-01T00:32:41.298Z,2.66
2023-01-01T00:35:08.040Z,2.42
2023-01-01T00:37:34.520Z,2.64
2023-01-01T00:40:01.253Z,2.23
2023-01-01T00:42:27.743Z,2.04
2023-01-01T00:44:54.236Z,2.11
2023-01-01T00:47:20.859Z,2.21
2023-01-01T00:49:47.332Z,2.09
2023-01-01T00:52:13.784Z,2.10
2023-01-01T00:54:40.397Z,2.09
2023-01-01T00:57:06.864Z,1.99
2023-01-01T00:59:33.384Z,1.99
2023-01-01T01:02:00.117Z,1.76
2023-01-01T01:04:26.789Z,2.01
2023-01-01T01:06:53.226Z,2.16
2023-01-01T01:09:19.697Z,1.90
2023-01-01T01:11:46.191Z,2.14
2023-01-01T01:14:12.653Z,2.25
2023-01-01T01:16:39.192Z,2.30
2023-01-01T01:19:05.923Z,2.11
2023-01-01T01:21:33.791Z,1.95
2023-01-01T01:24:00.979Z,1.87
2023-01-01T01:26:31.508Z,1.92
2023-01-01T01:28:58.574Z,1.85
2023-01-01T01:31:27.254Z,1.78
2023-01-01T01:33:53.722Z,1.85
2023-01-01T01:36:20.304Z,1.83
2023-01-01T01:38:47.384Z,1.69
2023-01-01T01:41:26.804Z,1.64
2023-01-01T01:43:59.239Z,1.68
2023-01-01T01:46:32.181Z,1.39
2023-01-01T01:49:02.606Z,1.48
2023-01-01T01:51:35.058Z,1.52
2023-01-01T01:54:03.452Z,1.50
2023-01-01T01:56:34.479Z,1.68
2023-01-01T01:59:01.071Z,1.43
2023-01-01T02:01:27.681Z,1.42
2023-01-01T02:04:01.237Z,1.37
2023-01-01T02:06:28.071Z,1.40
2023-01-01T02:08:56.611Z,2.41
2023-01-01T02:11:23.367Z,1.70
2023-01-01T02:13:50.604Z,1.70
2023-01-01T02:16:29.086Z,1.48
2023-01-01T02:19:00.059Z,1.25
2023-01-01T02:21:37.692Z,1.36
2023-01-01T02:24:14.495Z,1.24
2023-01-01T02:26:42.429Z,0.96
2023-01-01T02:29:11.921Z,1.28
2023-01-01T02:31:43.532Z,1.32
2023-01-01T02:34:11.708Z,1.26
2023-01-01T02:36:40.832Z,1.39
2023-01-01T02:39:07.765Z,1.34
2023-01-01T02:41:36.332Z,1.47
2023-01-01T02:46:35.578Z,1.25
2023-01-01T02:49:07.989Z,1.36
2023-01-01T02:51:36.596Z,1.36
2023-01-01T02:54:25.763Z,1.31
2023-01-01T02:56:53.491Z,1.15
2023-01-01T02:59:38.827Z,1.12
2023-01-01T03:02:17.383Z,1.31
2023-01-01T03:04:49.791Z,1.28
2023-01-01T03:07:51.911Z,1.37
2023-01-01T03:10:26.955Z,1.02
2023-01-01T03:13:03.051Z,1.36
2023-01-01T03:15:35.598Z,1.16
2023-01-01T03:18:08.406Z,1.30
2023-01-01T03:20:38.371Z,1.26
2023-01-01T03:23:10.631Z,1.15
2023-01-01T03:25:38.792Z,1.30
2023-01-01T03:28:14.924Z,1.35
2023-01-01T03:30:44.138Z,1.10
2023-01-01T03:33:18.613Z,1.08
2023-01-01T03:35:57.905Z,1.06
2023-01-01T03:38:29.971Z,1.32
2023-01-01T03:41:10.212Z,1.65
2023-01-01T03:43:36.668Z,1.41
2023-01-01T03:46:04.191Z,1.31
2023-01-01T03:48:50.646Z,1.24
2023-01-01T03:51:27.292Z,1.16
2023-01-01T03:53:57.145Z,1.06
2023-01-01T03:56:34.860Z,0.95
2023-01-01T03:59:07.253Z,1.12
2023-01-01T04:01:36.307Z,1.19
2023-01-01T04:04:05.045Z,1.29
2023-01-01T04:06:34.368Z,1.27
2023-01-01T04:09:01.683Z,1.12
2023-01-01T04:11:48.758Z,1.17
2023-01-01T04:14:25.922Z,1.13
2023-01-01T04:16:52.424Z,1.35
2023-01-01T04:19:18.842Z,1.01
2023-01-01T04:21:45.275Z,1.77
2023-01-01T04:24:11.806Z,1.41
2023-01-01T04:26:38.227Z,1.43
2023-01-01T04:29:05.786Z,1.49
2023-01-01T04:31:32.288Z,1.73
2023-01-01T04:33:58.952Z,2.29
2023-01-01T04:36:25.420Z,1.37
2023-01-01T04:38:51.894Z,1.54
2023-01-01T04:41:18.385Z,1.33
2023-01-01T04:43:50.537Z,1.43
2023-01-01T04:46:17.963Z,1.47
2023-01-01T04:48:44.489Z,1.43
2023-01-01T04:51:12.212Z,1.35
2023-01-01T04:53:38.795Z,1.40
2023-01-01T04:56:09.648Z,1.51
2023-01-01T04:58:36.682Z,1.60
2023-01-01T05:01:03.282Z,1.66
2023-01-01T05:03:29.920Z,1.77
2023-01-01T05:06:15.122Z,2.04
2023-01-01T05:08:43.378Z,1.92
2023-01-01T05:11:11.725Z,1.82
2023-01-01T05:13:39.010Z,1.75
2023-01-01T05:16:06.630Z,1.70
2023-01-01T05:18:34.014Z,1.73
2023-01-01T05:21:01.349Z,1.74
2023-01-01T05:23:28.619Z,1.71
2023-01-01T05:25:55.094Z,1.77
2023-01-01T05:28:21.591Z,2.11
2023-01-01T05:30:48.125Z,2.04
2023-01-01T05:33:14.653Z,1.94
2023-01-01T05:35:41.127Z,1.81
2023-01-01T05:38:07.532Z,1.82
2023-01-01T05:40:33.968Z,1.97
2023-01-01T05:43:00.444Z,1.81
2023-01-01T05:45:26.882Z,1.71
2023-01-01T05:47:53.408Z,1.79
2023-01-01T05:50:19.883Z,1.79
2023-01-01T05:52:46.368Z,1.82
2023-01-01T05:55:12.780Z,1.92
2023-01-01T05:57:39.229Z,1.91
2023-01-01T06:00:06.195Z,2.17
2023-01-01T06:02:33.191Z,1.87
2023-01-01T06:04:59.785Z,2.03
2023-01-01T06:07:26.271Z,2.21
2023-01-01T06:09:52.706Z,1.87
2023-01-01T06:12:19.192Z,1.68
2023-01-01T06:14:45.657Z,1.70
2023-01-01T06:17:12.098Z,1.87
2023-01-01T06:19:38.571Z,1.54
2023-01-01T06:22:05.804Z,1.42
2023-01-01T06:24:37.119Z,1.65
2023-01-01T06:27:07.093Z,2.11
2023-01-01T06:29:33.600Z,1.77
2023-01-01T06:32:00.090Z,1.76
2023-01-01T06:34:26.544Z,1.53
2023-01-01T06:36:52.975Z,1.48
2023-01-01T06:39:19.527Z,1.83
2023-01-01T06:41:45.924Z,2.11
2023-01-01T06:44:12.528Z,1.79
2023-01-01T06:46:38.996Z,1.85
2023-01-01T06:49:06.956Z,1.82
2023-01-01T06:51:36.492Z,1.79
2023-01-01T06:54:04.024Z,1.89
2023-01-01T06:56:31.108Z,1.91
2023-01-01T06:58:58.065Z,1.92
2023-01-01T07:01:26.056Z,1.95
2023-01-01T07:03:52.584Z,1.88
2023-01-01T07:06:19.147Z,1.79
2023-01-01T07:08:45.604Z,1.94
2023-01-01T07:11:12.068Z,2.47
2023-01-01T07:13:38.540Z,2.27
2023-01-01T07:16:12.390Z,2.15
2023-01-01T07:18:39.744Z,2.02
2023-01-01T07:21:07.573Z,2.24
2023-01-01T07:23:34.917Z,2.67
2023-01-01T07:26:01.354Z,2.73
2023-01-01T07:28:27.903Z,2.49
2023-01-01T07:30:54.567Z,2.36
2023-01-01T07:33:22.275Z,2.50
2023-01-01T07:35:49.456Z,2.50
2023-01-01T07:38:16.012Z,2.59
2023-01-01T07:40:42.515Z,2.47
2023-01-01T07:43:09.120Z,2.55
2023-01-01T07:45:35.929Z,2.42
2023-01-01T07:48:02.614Z,2.64
2023-01-01T07:50:30.742Z,3.26
2023-01-01T07:52:57.229Z,3.41
2023-01-01T07:55:23.706Z,3.13
2023-01-01T07:57:50.220Z,3.12
2023-01-01T08:00:18.580Z,3.42
2023-01-01T08:02:45.642Z,3.64
2023-01-01T08:05:12.148Z,3.55
2023-01-01T08:07:38.882Z,3.67
2023-01-01T08:10:06.161Z,3.73
2023-01-01T08:12:33.082Z,3.58
2023-01-01T08:14:59.543Z,3.72
2023-01-01T08:17:25.980Z,4.02
2023-01-01T08:19:52.685Z,4.10
2023-01-01T08:22:19.268Z,3.91
2023-01-01T08:24:45.820Z,4.59
2023-01-01T08:27:13.517Z,4.65
2023-01-01T08:29:40.623Z,4.18
2023-01-01T08:32:07.590Z,4.48
2023-01-01T08:34:34.168Z,4.26
2023-01-01T08:37:00.599Z,4.25
2023-01-01T08:39:27.010Z,4.72
2023-01-01T08:41:53.548Z,5.00
2023-01-01T08:44:20.301Z,5.60
2023-01-01T08:46:47.058Z,6.09
2023-01-01T08:49:13.579Z,6.72
2023-01-01T08:51:40.778Z,6.78
2023-01-01T08:54:07.272Z,7.04
2023-01-01T08:56:33.810Z,8.47
2023-01-01T08:59:04.181Z,8.40
2023-01-01T09:01:31.211Z,9.04
2023-01-01T09:03:57.839Z,9.23
2023-01-01T09:06:24.297Z,9.35
2023-01-01T09:08:51.373Z,8.48
2023-01-01T09:11:22.819Z,8.96
2023-01-01T09:13:49.370Z,9.58
2023-01-01T09:16:16.483Z,9.91
2023-01-01T09:18:42.968Z,10.20
2023-01-01T09:21:09.503Z,9.40
2023-01-01T09:23:35.997Z,10.39
2023-01-01T09:26:03.665Z,10.73
2023-01-01T09:28:30.774Z,10.30
2023-01-01T09:30:57.284Z,10.66
2023-01-01T09:33:23.842Z,10.27
2023-01-01T09:35:50.551Z,10.21
2023-01-01T09:38:17.035Z,10.97
2023-01-01T09:40:51.629Z,11.60
2023-01-01T09:43:38.867Z,12.04
2023-01-01T09:46:09.007Z,12.30
2023-01-01T09:48:37.819Z,12.85
2023-01-01T09:51:05.867Z,12.67
2023-01-01T09:53:32.290Z,13.21
2023-01-01T09:56:00.386Z,13.87
2023-01-01T09:58:28.219Z,13.30
2023-01-01T10:00:56.096Z,12.64
2023-01-01T10:03:45.508Z,12.49
2023-01-01T10:06:15.950Z,12.23
2023-01-01T10:09:15.000Z,12.35
2023-01-01T10:12:00.060Z,13.45
2023-01-01T10:14:30.662Z,13.80
2023-01-01T10:16:59.211Z,14.49
2023-01-01T10:19:58.127Z,14.31
2023-01-01T10:22:29.175Z,14.95
2023-01-01T10:25:18.938Z,14.27
2023-01-01T10:27:47.756Z,14.46
2023-01-01T10:30:18.803Z,14.41
2023-01-01T10:32:49.063Z,14.85
2023-01-01T10:35:17.278Z,15.06
2023-01-01T10:37:44.344Z,14.32
2023-01-01T10:40:14.801Z,14.58
2023-01-01T10:42:41.321Z,15.96
2023-01-01T10:45:18.620Z,15.25
2023-01-01T10:48:03.968Z,14.74
2023-01-01T10:50:48.975Z,15.05
2023-01-01T10:53:35.314Z,15.87
2023-01-01T10:56:04.719Z,15.53
2023-01-01T10:58:38.738Z,15.00
2023-01-01T11:01:06.779Z,15.10
2023-01-01T11:03:33.839Z,15.09
2023-01-01T11:06:00.251Z,15.32
2023-01-01T11:08:27.963Z,14.53
2023-01-01T11:10:56.063Z,13.72
2023-01-01T11:13:22.529Z,13.34
2023-01-01T11:15:49.167Z,13.52
2023-01-01T11:18:20.271Z,14.00
2023-01-01T11:20:51.624Z,13.14
2023-01-01T11:23:29.889Z,14.48
2023-01-01T11:26:04.964Z,14.83
2023-01-01T11:28:34.385Z,15.43
2023-01-01T11:31:03.897Z,15.32
2023-01-01T11:33:32.226Z,14.86
2023-01-01T11:35:58.851Z,15.58
2023-01-01T11:38:29.940Z,14.69
2023-01-01T11:41:01.395Z,15.50
2023-01-01T11:43:28.915Z,16.18
2023-01-01T11:45:57.224Z,15.16
2023-01-01T11:48:26.987Z,14.90
2023-01-01T11:50:54.925Z,16.31
2023-01-01T11:53:24.603Z,16.03
2023-01-01T11:56:06.089Z,16.41
2023-01-01T11:58:33.192Z,16.65
2023-01-01T12:01:02.347Z,16.69
2023-01-01T12:03:33.854Z,16.80
2023-01-01T12:06:00.696Z,17.30
2023-01-01T12:08:38.710Z,17.06
2023-01-01T12:11:11.270Z,16.99
2023-01-01T12:13:45.870Z,17.70
2023-01-01T12:16:32.572Z,17.89
2023-01-01T12:18:58.971Z,17.39
2023-01-01T12:21:26.717Z,17.69
2023-01-01T12:23:53.191Z,18.55
2023-01-01T12:26:25.728Z,17.70
2023-01-01T12:29:08.176Z,16.40
2023-01-01T12:31:34.642Z,16.56
2023-01-01T12:34:06.740Z,17.27
2023-01-01T12:36:40.646Z,17.35
2023-01-01T12:39:32.927Z,16.99
2023-01-01T12:42:35.145Z,17.59
2023-01-01T12:45:12.676Z,17.58
2023-01-01T12:47:57.587Z,17.39
2023-01-01T12:50:34.565Z,18.48
2023-01-01T12:53:17.554Z,17.19
2023-01-01T12:55:58.957Z,16.97
2023-01-01T12:58:28.407Z,18.09
2023-01-01T13:00:58.396Z,17.31
2023-01-01T13:03:28.244Z,15.82
2023-01-01T13:05:56.519Z,15.69
2023-01-01T13:08:22.964Z,15.18
2023-01-01T13:10:51.717Z,14.32
2023-01-01T13:13:18.340Z,14.49
2023-01-01T13:15:46.079Z,14.88
2023-01-01T13:18:15.712Z,15.03
2023-01-01T13:20:42.207Z,15.50
2023-01-01T13:23:27.309Z,15.99
2023-01-01T13:26:12.443Z,16.19
2023-01-01T13:28:38.941Z,16.86
2023-01-01T13:31:05.438Z,16.57
2023-01-01T13:33:36.922Z,16.98
2023-01-01T13:36:12.717Z,15.50
2023-01-01T13:38:55.161Z,15.96
2023-01-01T13:41:37.150Z,17.25
2023-01-01T13:44:03.631Z,17.82
2023-01-01T13:46:33.117Z,17.61
2023-01-01T13:49:08.872Z,17.86
2023-01-01T13:52:09.748Z,17.70
2023-01-01T13:55:02.672Z,16.93
2023-01-01T13:57:42.306Z,16.26
2023-01-01T14:00:25.419Z,15.85
2023-01-01T14:02:59.060Z,16.19
2023-01-01T14:05:31.841Z,15.90
2023-01-01T14:07:58.545Z,15.88
2023-01-01T14:10:29.087Z,15.92
2023-01-01T14:12:57.998Z,15.08
2023-01-01T14:15:24.911Z,13.83
2023-01-01T14:17:52.664Z,14.39
2023-01-01T14:20:21.663Z,14.80
2023-01-01T14:22:48.880Z,14.64
2023-01-01T14:25:16.798Z,13.59
2023-01-01T14:27:44.007Z,13.07
2023-01-01T14:30:18.264Z,12.79
2023-01-01T14:32:44.794Z,11.97
2023-01-01T14:35:17.525Z,11.32
2023-01-01T14:37:44.186Z,10.99
2023-01-01T14:40:18.519Z,10.51
2023-01-01T14:42:46.512Z,10.60
2023-01-01T14:45:16.778Z,10.69
2023-01-01T14:47:46.255Z,10.50
2023-01-01T14:50:17.649Z,10.10
2023-01-01T14:52:44.274Z,9.85
2023-01-01T14:55:16.651Z,9.84
2023-01-01T14:57:46.483Z,9.64
2023-01-01T15:00:23.933Z,9.58
2023-01-01T15:02:50.661Z,9.71
2023-01-01T15:05:23.325Z,9.68
2023-01-01T15:08:00.010Z,9.45
2023-01-01T15:10:27.747Z,8.88
2023-01-01T15:12:54.808Z,8.95
2023-01-01T15:15:41.592Z,8.99
2023-01-01T15:18:27.962Z,9.09
2023-01-01T15:20:55.432Z,9.26
2023-01-01T15:23:21.887Z,9.04
2023-01-01T15:25:48.309Z,9.02
2023-01-01T15:28:19.396Z,8.76
2023-01-01T15:30:51.945Z,8.81
2023-01-01T15:33:18.546Z,8.60
2023-01-01T15:35:52.218Z,8.60
2023-01-01T15:38:27.147Z,8.43
2023-01-01T15:40:54.076Z,8.29
2023-01-01T15:43:27.306Z,8.25
2023-01-01T15:46:10.485Z,8.35
2023-01-01T15:48:37.813Z,8.18
2023-01-01T15:51:12.762Z,7.95
2023-01-01T15:53:49.075Z,7.93
2023-01-01T15:56:15.706Z,8.00
2023-01-01T15:58:42.201Z,7.98
2023-01-01T16:01:10.876Z,8.04
2023-01-01T16:03:38.459Z,8.01
2023-01-01T16:06:05.326Z,7.80
2023-01-01T16:08:31.751Z,7.62
2023-01-01T16:10:58.256Z,7.52
2023-01-01T16:13:24.689Z,7.57
2023-01-01T16:15:56.773Z,7.80
2023-01-01T16:18:28.962Z,7.76
2023-01-01T16:20:56.101Z,7.52
2023-01-01T16:23:22.686Z,7.46
2023-01-01T16:25:49.166Z,7.61
2023-01-01T16:28:15.637Z,7.66
2023-01-01T16:30:43.064Z,7.41
2023-01-01T16:33:14.102Z,7.36
2023-01-01T16:35:40.578Z,7.37
2023-01-01T16:38:07.008Z,7.31
2023-01-01T16:40:37.675Z,7.22
2023-01-01T16:43:05.812Z,7.29
2023-01-01T16:45:32.305Z,7.18
2023-01-01T16:47:58.752Z,7.05
2023-01-01T16:50:26.493Z,6.97
2023-01-01T16:52:54.592Z,6.87
2023-01-01T16:55:21.087Z,6.84
2023-01-01T16:57:47.800Z,6.73
2023-01-01T17:00:14.445Z,6.38
2023-01-01T17:02:41.520Z,6.46
2023-01-01T17:05:08.821Z,6.48
2023-01-01T17:07:35.730Z,6.37
2023-01-01T17:10:02.208Z,6.39
2023-01-01T17:12:28.679Z,6.41
2023-01-01T17:14:55.161Z,6.24
2023-01-01T17:17:21.577Z,6.19
2023-01-01T17:19:50.551Z,6.23
2023-01-01T17:22:17.019Z,6.12
2023-01-01T17:24:43.770Z,6.23
2023-01-01T17:27:10.348Z,6.15
2023-01-01T17:29:37.655Z,6.04
2023-01-01T17:32:04.207Z,5.99
2023-01-01T17:34:30.730Z,6.08
2023-01-01T17:36:57.196Z,6.17
2023-01-01T17:39:23.627Z,6.00
2023-01-01T17:41:50.077Z,5.81
2023-01-01T17:44:16.498Z,5.70
2023-01-01T17:46:44.145Z,5.61
2023-01-01T17:49:11.050Z,5.63
2023-01-01T17:51:39.484Z,5.72
2023-01-01T17:54:10.179Z,5.58
2023-01-01T17:56:36.664Z,5.88
2023-01-01T17:59:03.227Z,5.65
2023-01-01T18:01:31.124Z,5.54
2023-01-01T18:04:05.262Z,5.48
2023-01-01T18:06:37.164Z,5.40
2023-01-01T18:09:07.873Z,5.27
2023-01-01T18:11:34.556Z,5.35
2023-01-01T18:14:01.752Z,5.14
2023-01-01T18:16:29.707Z,4.93
2023-01-01T18:18:56.904Z,5.15
2023-01-01T18:21:23.931Z,5.08
2023-01-01T18:23:51.321Z,5.44
2023-01-01T18:26:18.253Z,5.11
2023-01-01T18:28:44.820Z,4.82
2023-01-01T18:31:12.991Z,4.77
2023-01-01T18:33:39.784Z,4.80
2023-01-01T18:36:09.559Z,4.94
2023-01-01T18:38:36.526Z,5.00
2023-01-01T18:41:06.005Z,4.92
2023-01-01T18:43:32.483Z,4.76
2023-01-01T18:45:59.011Z,4.77
2023-01-01T18:48:25.463Z,4.67
2023-01-01T18:50:51.891Z,4.60
2023-01-01T18:53:22.040Z,4.77
2023-01-01T18:55:53.501Z,4.63
2023-01-01T18:58:24.168Z,4.66
2023-01-01T19:00:53.904Z,4.63
2023-01-01T19:03:28.367Z,4.43
2023-01-01T19:05:55.875Z,4.47
2023-01-01T19:08:23.182Z,4.47
2023-01-01T19:10:54.612Z,4.54
2023-01-01T19:13:28.040Z,4.32
2023-01-01T19:15:56.973Z,4.34
2023-01-01T19:18:24.713Z,4.48
2023-01-01T19:21:17.541Z,4.40
2023-01-01T19:23:49.866Z,4.45
2023-01-01T19:26:23.628Z,4.36
2023-01-01T19:28:54.597Z,4.39
2023-01-01T19:31:21.172Z,4.24
2023-01-01T19:33:47.798Z,4.19
2023-01-01T19:36:14.329Z,4.28
2023-01-01T19:38:40.829Z,4.30
2023-01-01T19:41:07.805Z,4.17
2023-01-01T19:43:34.355Z,4.02
2023-01-01T19:46:00.802Z,3.92
2023-01-01T19:48:27.307Z,4.17
2023-01-01T19:50:53.768Z,4.08
2023-01-01T19:53:20.380Z,3.94
2023-01-01T19:55:46.850Z,3.81
2023-01-01T19:58:13.325Z,3.96
2023-01-01T20:00:39.784Z,3.96
2023-01-01T20:03:34.524Z,4.02
2023-01-01T20:05:52.733Z,3.96
2023-01-01T20:08:19.163Z,3.90
2023-01-01T20:10:45.669Z,3.80
2023-01-01T20:13:12.087Z,3.70
2023-01-01T20:15:44.769Z,3.76
2023-01-01T20:18:14.338Z,3.82
2023-01-01T20:20:59.415Z,3.75
2023-01-01T20:23:25.920Z,3.71
2023-01-01T20:25:52.359Z,3.51
2023-01-01T20:28:37.589Z,3.47
2023-01-01T20:31:04.059Z,3.50
2023-01-01T20:33:30.556Z,3.66
2023-01-01T20:36:15.772Z,3.55
2023-01-01T20:38:42.278Z,3.76
2023-01-01T20:41:25.329Z,3.55
2023-01-01T20:43:56.506Z,3.59
2023-01-01T20:46:25.132Z,3.53
2023-01-01T20:48:52.378Z,3.58
2023-01-01T20:51:18.873Z,3.60
2023-01-01T20:53:45.377Z,3.50
2023-01-01T20:56:11.950Z,3.27
2023-01-01T20:58:42.811Z,3.41
2023-01-01T21:01:12.796Z,3.43
2023-01-01T21:03:39.430Z,3.36
2023-01-01T21:06:06.003Z,3.35
2023-01-01T21:08:32.430Z,3.37
2023-01-01T21:10:58.915Z,3.40
2023-01-01T21:13:25.765Z,3.28
2023-01-01T21:15:54.586Z,3.29
2023-01-01T21:18:21.024Z,3.30
2023-01-01T21:20:48.347Z,3.35
2023-01-01T21:23:24.969Z,3.30
2023-01-01T21:25:52.303Z,3.28
2023-01-01T21:28:19.341Z,3.22
2023-01-01T21:30:50.796Z,3.25
2023-01-01T21:33:27.976Z,3.14
2023-01-01T21:35:54.640Z,3.13
2023-01-01T21:38:31.599Z,3.11
2023-01-01T21:40:59.443Z,3.08
2023-01-01T21:43:28.199Z,3.00
2023-01-01T21:46:14.914Z,2.99
2023-01-01T21:48:55.421Z,3.10
2023-01-01T21:51:21.901Z,3.01
2023-01-01T21:53:48.570Z,2.87
2023-01-01T21:56:35.615Z,2.99
2023-01-01T21:59:27.674Z,2.95
2023-01-01T22:02:05.533Z,2.83
2023-01-01T22:04:41.356Z,2.86
2023-01-01T22:10:18.696Z,3.00
2023-01-01T22:12:45.702Z,2.92
2023-01-01T22:15:21.343Z,2.79
2023-01-01T22:17:47.788Z,2.52
2023-01-01T22:20:21.704Z,2.51
2023-01-01T22:22:48.283Z,2.61
2023-01-01T22:25:20.613Z,2.61
2023-01-01T22:27:47.104Z,2.65
2023-01-01T22:30:13.507Z,2.69
2023-01-01T22:32:40.003Z,2.69
2023-01-01T22:35:13.637Z,2.75
2023-01-01T22:37:41.224Z,2.63
2023-01-01T22:40:12.854Z,2.57
2023-01-01T22:42:39.367Z,2.64
2023-01-01T22:45:12.193Z,2.64
2023-01-01T22:47:38.624Z,2.55
2023-01-01T22:50:06.194Z,2.61
2023-01-01T22:52:32.655Z,2.56
2023-01-01T22:54:59.120Z,2.48
2023-01-01T22:57:25.594Z,2.39
2023-01-01T22:59:52.093Z,2.43
2023-01-01T23:02:18.616Z,2.55
2023-01-01T23:04:45.041Z,2.42
2023-01-01T23:07:14.402Z,2.31
2023-01-01T23:09:41.421Z,2.36
2023-01-01T23:12:08.010Z,2.40
2023-01-01T23:14:53.028Z,2.49
2023-01-01T23:17:19.491Z,2.62
2023-01-01T23:19:45.886Z,2.61
2023-01-01T23:22:13.662Z,2.44
2023-01-01T23:24:40.163Z,2.40
2023-01-01T23:27:06.619Z,2.59
2023-01-01T23:29:33.408Z,2.55
2023-01-01T23:32:00.720Z,2.36
2023-01-01T23:34:27.463Z,2.55
2023-01-01T23:36:55.246Z,2.46
2023-01-01T23:39:21.715Z,2.24
2023-01-01T23:41:48.215Z,2.27
2023-01-01T23:44:14.682Z,2.38
2023-01-01T23:46:41.160Z,2.38
2023-01-01T23:49:07.911Z,3.22
2023-01-01T23:51:34.476Z,2.89
2023-01-01T23:54:00.941Z,2.73
2023-01-01T23:56:27.387Z,2.50
2023-01-01T23:58:53.869Z,2.28
